Terminal Aerodrome Forecast
Issued by NWS Bismarck, ND

Home | Current Version | Previous Version | Text Only | Print | Product List | Glossary Off
Versions: 1 2 3 4 5 6 7 8 9 10 11 12 13 14 15 16 17 18 19 20 21 22

000
FTUS43 KBIS 251729
TAFBIS
TAF
KBIS 251729Z 2518/2618 13010KT P6SM VCSH SCT060 BKN100
     FM252000 22008KT P6SM VCTS SCT050CB SCT080
     FM252300 25012KT P6SM VCTS SCT040CB SCT070
     FM260300 27010KT P6SM BKN110
     FM261000 27006KT P6SM SCT050=

USA.gov is the U.S. government's official web portal to all federal, state and local government web resources and services.